Daily Summary for September 17, 2020 Units:  Both    English   Metric
Daily Weekly Monthly Yearly
  High: Low: Average:
Temperature: 73.8 °F /  23.2 °C 44.2 °F /  6.8 °C 57.9 °F /  14.4 °C
Dew Point: 56.5 °F /  13.6 °C 41.4 °F /  5.2 °C 48.7 °F /  9.3 °C
Humidity: 91.5% 49.7% 73%
Wind Speed: 10.2mph /  16.4km/h - 3.7mph /  6km/h
Wind Gust: 23mph /  37km/h - -
Wind- - SSE
Pressure: 30.4 in /  1028.5 hPa 30.1 in /  1019.2 hPa -
Precipitation: 0 in /  0.0 mm    
 
 
Tabular Data for September 17, 2020
Time Temperature Dew Point Pressure Wind Wind Speed Wind Gust Humidity Rainfall Rate (Hourly) solar
00:04 48.4 °F /  9.1 °C 44.6 °F /  7 °C 30.1in /  1020.2hPa NE 0.7mph /  1.1km/h 2mph /  3.2km/h 86.6% 0in /  0.0mm 0 W/m2
00:09 49.1 °F /  9.5 °C 45 °F /  7.2 °C 30.1in /  1020.3hPa NE 1mph /  1.6km/h 2mph /  3.2km/h 85.8% 0in /  0.0mm 0 W/m2
00:14 49.5 °F /  9.7 °C 44.8 °F /  7.1 °C 30.1in /  1020.3hPa NE 0.6mph /  1km/h 2mph /  3.2km/h 84.3% 0in /  0.0mm 0 W/m2
00:19 49.1 °F /  9.5 °C 44.6 °F /  7 °C 30.1in /  1020.3hPa Calm   2mph /  3.2km/h 84.2% 0in /  0.0mm 0 W/m2
00:24 49.3 °F /  9.6 °C 45 °F /  7.2 °C 30.1in /  1020.3hPa Calm     84.8% 0in /  0.0mm 0 W/m2
00:29 49.8 °F /  9.9 °C 45.1 °F /  7.3 °C 30.1in /  1020.4hPa Calm     84% 0in /  0.0mm 0 W/m2
00:34 48.9 °F /  9.4 °C 43.9 °F /  6.6 °C 30.1in /  1020.3hPa Calm   1mph /  1.6km/h 83% 0in /  0.0mm 0 W/m2
00:39 47.7 °F /  8.7 °C 43.2 °F /  6.2 °C 30.1in /  1020.3hPa Calm   1mph /  1.6km/h 84.2% 0in /  0.0mm 0 W/m2
00:44 48.4 °F /  9.1 °C 44.6 °F /  7 °C 30.1in /  1020.2hPa Calm   1mph /  1.6km/h 87% 0in /  0.0mm 0 W/m2
00:49 48.7 °F /  9.3 °C 44.8 °F /  7.1 °C 30.1in /  1020.2hPa Calm   3mph /  4.8km/h 86.1% 0in /  0.0mm 0 W/m2
00:54 48.7 °F /  9.3 °C 44.6 °F /  7 °C 30.1in /  1020.2hPa NE 1mph /  1.6km/h 3mph /  4.8km/h 85.1% 0in /  0.0mm 0 W/m2
00:59 48.7 °F /  9.3 °C 44.6 °F /  7 °C 30.1in /  1020.1hPa NE 1mph /  1.6km/h 3mph /  4.8km/h 85.5% 0in /  0.0mm 0 W/m2
01:04 48.9 °F /  9.4 °C 44.6 °F /  7 °C 30.1in /  1020.1hPa Calm   2mph /  3.2km/h 85.3% 0in /  0.0mm 0 W/m2
01:09 48.4 °F /  9.1 °C 44.2 °F /  6.8 °C 30.1in /  1020.1hPa Calm   2mph /  3.2km/h 85.1% 0in /  0.0mm 0 W/m2
01:14 48.2 °F /  9 °C 44.1 °F /  6.7 °C 30.1in /  1020.1hPa Calm   2mph /  3.2km/h 85.3% 0in /  0.0mm 0 W/m2
01:19 47.8 °F /  8.8 °C 43.9 °F /  6.6 °C 30.1in /  1020.0hPa Calm   2mph /  3.2km/h 85.6% 0in /  0.0mm 0 W/m2
01:24 47.7 °F /  8.7 °C 43.5 °F /  6.4 °C 30.1in /  1020.0hPa NE 0.4mph /  0.6km/h 2mph /  3.2km/h 85.7% 0in /  0.0mm 0 W/m2
01:29 47.1 °F /  8.4 °C 43 °F /  6.1 °C 30.1in /  1020.0hPa NE 1mph /  1.6km/h 2mph /  3.2km/h 85.5% 0in /  0.0mm 0 W/m2
01:34 46.9 °F /  8.3 °C 43.3 °F /  6.3 °C 30.1in /  1019.9hPa NE 1mph /  1.6km/h 2mph /  3.2km/h 87% 0in /  0.0mm 0 W/m2
01:39 46.8 °F /  8.2 °C 43 °F /  6.1 °C 30.1in /  1019.9hPa NE 1mph /  1.6km/h 3mph /  4.8km/h 86.3% 0in /  0.0mm 0 W/m2
01:44 46.9 °F /  8.3 °C 43.3 °F /  6.3 °C 30.1in /  1019.9hPa NE 1mph /  1.6km/h 3mph /  4.8km/h 87.4% 0in /  0.0mm 0 W/m2
01:49 46.8 °F /  8.2 °C 43 °F /  6.1 °C 30.1in /  1019.9hPa NE 1mph /  1.6km/h 3mph /  4.8km/h 86.9% 0in /  0.0mm 0 W/m2
01:54 46.8 °F /  8.2 °C 43.2 °F /  6.2 °C 30.1in /  1019.7hPa NE 1mph /  1.6km/h 2mph /  3.2km/h 87.5% 0in /  0.0mm 0 W/m2
01:59 46.9 °F /  8.3 °C 43.5 °F /  6.4 °C 30.1in /  1019.7hPa NE 1mph /  1.6km/h 2mph /  3.2km/h 87.9% 0in /  0.0mm 0 W/m2
02:04 47.1 °F /  8.4 °C 43.7 °F /  6.5 °C 30.1in /  1019.6hPa NE 0.4mph /  0.6km/h 2mph /  3.2km/h 87.7% 0in /  0.0mm 0 W/m2
02:09 47.3 °F /  8.5 °C 43.7 °F /  6.5 °C 30.1in /  1019.6hPa Calm   2mph /  3.2km/h 87.3% 0in /  0.0mm 0 W/m2
02:14 46.4 °F /  8 °C 42.6 °F /  5.9 °C 30.1in /  1019.5hPa Calm   2mph /  3.2km/h 86.6% 0in /  0.0mm 0 W/m2
02:19 45.9 °F /  7.7 °C 42.3 °F /  5.7 °C 30.1in /  1019.6hPa Calm   1mph /  1.6km/h 87% 0in /  0.0mm 0 W/m2
02:24 45.9 °F /  7.7 °C 42.4 °F /  5.8 °C 30.1in /  1019.5hPa Calm     87.8% 0in /  0.0mm 0 W/m2
02:29 46.4 °F /  8 °C 43 °F /  6.1 °C 30.1in /  1019.5hPa Calm     88% 0in /  0.0mm 0 W/m2
02:34 46.6 °F /  8.1 °C 43.2 °F /  6.2 °C 30.1in /  1019.5hPa Calm     88% 0in /  0.0mm 0 W/m2
02:39 46.4 °F /  8 °C 43 °F /  6.1 °C 30.1in /  1019.5hPa Calm   1mph /  1.6km/h 88.2% 0in /  0.0mm 0 W/m2
02:44 46.4 °F /  8 °C 43.2 °F /  6.2 °C 30.1in /  1019.5hPa Calm   1mph /  1.6km/h 88.3% 0in /  0.0mm 0 W/m2
02:49 45.9 °F /  7.7 °C 42.6 °F /  5.9 °C 30.1in /  1019.5hPa Calm   2mph /  3.2km/h 88% 0in /  0.0mm 0 W/m2
02:54 45.3 °F /  7.4 °C 41.9 °F /  5.5 °C 30.1in /  1019.4hPa NE 0.8mph /  1.3km/h 3mph /  4.8km/h 88.1% 0in /  0.0mm 0 W/m2
02:59 45.5 °F /  7.5 °C 42.3 °F /  5.7 °C 30.1in /  1019.3hPa NE 1.8mph /  2.9km/h 3mph /  4.8km/h 89% 0in /  0.0mm 0 W/m2
03:04 45.7 °F /  7.6 °C 42.6 °F /  5.9 °C 30.1in /  1019.2hPa NE 2mph /  3.2km/h 3mph /  4.8km/h 89% 0in /  0.0mm 0 W/m2
03:09 46 °F /  7.8 °C 43 °F /  6.1 °C 30.1in /  1019.2hPa NE 2mph /  3.2km/h 3mph /  4.8km/h 89% 0in /  0.0mm 0 W/m2
03:14 46.2 °F /  7.9 °C 43.2 °F /  6.2 °C 30.1in /  1019.2hPa ENE 2mph /  3.2km/h 3mph /  4.8km/h 89% 0in /  0.0mm 0 W/m2
03:19 46.6 °F /  8.1 °C 43.5 °F /  6.4 °C 30.1in /  1019.3hPa ENE 2mph /  3.2km/h 3mph /  4.8km/h 89% 0in /  0.0mm 0 W/m2
03:24 46.9 °F /  8.3 °C 43.5 °F /  6.4 °C 30.1in /  1019.3hPa ENE 1.4mph /  2.3km/h 3mph /  4.8km/h 88.5% 0in /  0.0mm 0 W/m2
03:29 46.6 °F /  8.1 °C 43.2 °F /  6.2 °C 30.1in /  1019.3hPa ENE 1mph /  1.6km/h 3mph /  4.8km/h 88% 0in /  0.0mm 0 W/m2
03:34 46.4 °F /  8 °C 43.2 °F /  6.2 °C 30.1in /  1019.4hPa ENE 1mph /  1.6km/h 3mph /  4.8km/h 88% 0in /  0.0mm 0 W/m2
03:39 45.9 °F /  7.7 °C 42.4 °F /  5.8 °C 30.1in /  1019.4hPa ENE 1mph /  1.6km/h 3mph /  4.8km/h 87.8% 0in /  0.0mm 0 W/m2
03:44 45.1 °F /  7.3 °C 41.9 °F /  5.5 °C 30.1in /  1019.4hPa ENE 1mph /  1.6km/h 3mph /  4.8km/h 88% 0in /  0.0mm 0 W/m2
03:49 45 °F /  7.2 °C 41.9 °F /  5.5 °C 30.1in /  1019.4hPa East 1.8mph /  2.9km/h 4mph /  6.4km/h 88.7% 0in /  0.0mm 0 W/m2
03:54 45 °F /  7.2 °C 41.9 °F /  5.5 °C 30.1in /  1019.4hPa East 2mph /  3.2km/h 4mph /  6.4km/h 89% 0in /  0.0mm 0 W/m2
03:59 44.4 °F /  6.9 °C 41.4 °F /  5.2 °C 30.1in /  1019.4hPa East 2mph /  3.2km/h 4mph /  6.4km/h 88.6% 0in /  0.0mm 0 W/m2
04:04 44.4 °F /  6.9 °C 41.4 °F /  5.2 °C 30.1in /  1019.5hPa East 2mph /  3.2km/h 4mph /  6.4km/h 89.1% 0in /  0.0mm 0 W/m2
04:09 44.4 °F /  6.9 °C 41.5 °F /  5.3 °C 30.1in /  1019.5hPa East 2mph /  3.2km/h 4mph /  6.4km/h 89.5% 0in /  0.0mm 0 W/m2
04:14 44.2 °F /  6.8 °C 41.5 °F /  5.3 °C 30.1in /  1019.6hPa East 2mph /  3.2km/h 4mph /  6.4km/h 90% 0in /  0.0mm 0 W/m2
04:19 44.2 °F /  6.8 °C 41.5 °F /  5.3 °C 30.1in /  1019.6hPa East 2mph /  3.2km/h 3mph /  4.8km/h 90% 0in /  0.0mm 0 W/m2
04:24 44.6 °F /  7 °C 41.9 °F /  5.5 °C 30.1in /  1019.6hPa East 2mph /  3.2km/h 3mph /  4.8km/h 90.5% 0in /  0.0mm 0 W/m2
04:29 44.8 °F /  7.1 °C 42.1 °F /  5.6 °C 30.1in /  1019.7hPa East 1.4mph /  2.3km/h 3mph /  4.8km/h 90.7% 0in /  0.0mm 0 W/m2
04:34 44.8 °F /  7.1 °C 42.1 °F /  5.6 °C 30.1in /  1019.7hPa East 1mph /  1.6km/h 3mph /  4.8km/h 90.2% 0in /  0.0mm 0 W/m2
04:39 45.3 °F /  7.4 °C 42.8 °F /  6 °C 30.1in /  1019.7hPa East 1mph /  1.6km/h 3mph /  4.8km/h 91.4% 0in /  0.0mm 0 W/m2
04:44 45.9 °F /  7.7 °C 43.5 °F /  6.4 °C 30.1in /  1019.8hPa East 1mph /  1.6km/h 3mph /  4.8km/h 91.4% 0in /  0.0mm 0 W/m2
04:49 46 °F /  7.8 °C 43.7 °F /  6.5 °C 30.1in /  1019.8hPa East 1mph /  1.6km/h 3mph /  4.8km/h 91.2% 0in /  0.0mm 0 W/m2
04:54 46 °F /  7.8 °C 43.5 °F /  6.4 °C 30.1in /  1019.8hPa East 1mph /  1.6km/h 3mph /  4.8km/h 91% 0in /  0.0mm 0 W/m2
04:59 46.2 °F /  7.9 °C 43.7 °F /  6.5 °C 30.1in /  1019.9hPa East 1mph /  1.6km/h 3mph /  4.8km/h 90.8% 0in /  0.0mm 0 W/m2
05:04 45.5 °F /  7.5 °C 42.8 °F /  6 °C 30.1in /  1019.9hPa East 1mph /  1.6km/h 3mph /  4.8km/h 90.3% 0in /  0.0mm 0 W/m2
05:09 45.9 °F /  7.7 °C 43.2 °F /  6.2 °C 30.1in /  1020.0hPa East 0.2mph /  0.3km/h 2mph /  3.2km/h 90.8% 0in /  0.0mm 0 W/m2
05:14 45.7 °F /  7.6 °C 43 °F /  6.1 °C 30.1in /  1020.0hPa East 0.2mph /  0.3km/h 2mph /  3.2km/h 90.4% 0in /  0.0mm 0 W/m2
05:19 45 °F /  7.2 °C 42.1 °F /  5.6 °C 30.1in /  1020.0hPa Calm   2mph /  3.2km/h 90% 0in /  0.0mm 0 W/m2
05:24 44.4 °F /  6.9 °C 41.7 °F /  5.4 °C 30.1in /  1020.0hPa East 1mph /  1.6km/h 3mph /  4.8km/h 90% 0in /  0.0mm 0 W/m2
05:29 44.2 °F /  6.8 °C 41.5 °F /  5.3 °C 30.1in /  1020.0hPa East 1mph /  1.6km/h 3mph /  4.8km/h 90.2% 0in /  0.0mm 0 W/m2
05:34 44.2 °F /  6.8 °C 41.7 °F /  5.4 °C 30.1in /  1020.0hPa East 1mph /  1.6km/h 3mph /  4.8km/h 91% 0in /  0.0mm 0 W/m2
05:39 44.4 °F /  6.9 °C 41.9 °F /  5.5 °C 30.1in /  1020.1hPa East 1.2mph /  1.9km/h 3mph /  4.8km/h 91% 0in /  0.0mm 0 W/m2
05:44 45 °F /  7.2 °C 42.4 °F /  5.8 °C 30.1in /  1020.1hPa East 1.2mph /  1.9km/h 3mph /  4.8km/h 91% 0in /  0.0mm 0 W/m2
05:49 45.1 °F /  7.3 °C 42.6 °F /  5.9 °C 30.1in /  1020.2hPa East 1mph /  1.6km/h 3mph /  4.8km/h 91% 0in /  0.0mm 0 W/m2
05:54 45.1 °F /  7.3 °C 42.6 °F /  5.9 °C 30.1in /  1020.2hPa East 1mph /  1.6km/h 3mph /  4.8km/h 91% 0in /  0.0mm 0 W/m2
05:59 45 °F /  7.2 °C 42.6 °F /  5.9 °C 30.1in /  1020.2hPa East 1.4mph /  2.3km/h 3mph /  4.8km/h 91% 0in /  0.0mm 0 W/m2
06:04 45.5 °F /  7.5 °C 43.2 °F /  6.2 °C 30.1in /  1020.2hPa East 2mph /  3.2km/h 3mph /  4.8km/h 91.4% 0in /  0.0mm 0 W/m2
06:09 46.4 °F /  8 °C 44.1 °F /  6.7 °C 30.1in /  1020.3hPa East 2mph /  3.2km/h 3mph /  4.8km/h 91.5% 0in /  0.0mm 7 W/m2
06:14 46.6 °F /  8.1 °C 43.9 °F /  6.6 °C 30.1in /  1020.3hPa East 1.2mph /  1.9km/h 3mph /  4.8km/h 90.7% 0in /  0.0mm 11 W/m2
06:19 45.9 °F /  7.7 °C 43 °F /  6.1 °C 30.1in /  1020.3hPa East 1mph /  1.6km/h 4mph /  6.4km/h 89.8% 0in /  0.0mm 14 W/m2
06:24 45.7 °F /  7.6 °C 43.2 °F /  6.2 °C 30.1in /  1020.4hPa East 1.2mph /  1.9km/h 4mph /  6.4km/h 90.7% 0in /  0.0mm 19 W/m2
06:29 46.4 °F /  8 °C 43.9 °F /  6.6 °C 30.1in /  1020.3hPa East 1.6mph /  2.6km/h 4mph /  6.4km/h 90.7% 0in /  0.0mm 21 W/m2
06:34 46.8 °F /  8.2 °C 44.1 °F /  6.7 °C 30.1in /  1020.5hPa East 1mph /  1.6km/h 3mph /  4.8km/h 90.3% 0in /  0.0mm 25 W/m2
06:39 46.4 °F /  8 °C 43.3 °F /  6.3 °C 30.1in /  1020.6hPa East 1mph /  1.6km/h 3mph /  4.8km/h 89.2% 0in /  0.0mm 26 W/m2
06:44 45.9 °F /  7.7 °C 42.8 °F /  6 °C 30.1in /  1020.6hPa East 1mph /  1.6km/h 3mph /  4.8km/h 88.8% 0in /  0.0mm 30 W/m2
06:49 45.7 °F /  7.6 °C 42.8 °F /  6 °C 30.1in /  1020.7hPa ESE 1mph /  1.6km/h 3mph /  4.8km/h 89.8% 0in /  0.0mm 30 W/m2
06:54 46.2 °F /  7.9 °C 43.5 °F /  6.4 °C 30.1in /  1020.8hPa ESE 1mph /  1.6km/h 3mph /  4.8km/h 90.1% 0in /  0.0mm 46 W/m2
06:59 46.4 °F /  8 °C 43.3 °F /  6.3 °C 30.1in /  1020.8hPa ESE 1mph /  1.6km/h 3mph /  4.8km/h 89.3% 0in /  0.0mm 60 W/m2
07:04 46.4 °F /  8 °C 43.5 °F /  6.4 °C 30.2in /  1020.9hPa ESE 1.4mph /  2.3km/h 3mph /  4.8km/h 89.8% 0in /  0.0mm 65 W/m2
07:09 47.5 °F /  8.6 °C 44.6 °F /  7 °C 30.2in /  1021.0hPa ESE 1mph /  1.6km/h 3mph /  4.8km/h 89.6% 0in /  0.0mm 83 W/m2
07:14 48.6 °F /  9.2 °C 45.7 °F /  7.6 °C 30.2in /  1021.0hPa ESE 0.8mph /  1.3km/h 3mph /  4.8km/h 89.6% 0in /  0.0mm 84 W/m2
07:19 49.3 °F /  9.6 °C 45.9 °F /  7.7 °C 30.2in /  1020.9hPa ESE 0.4mph /  0.6km/h 2mph /  3.2km/h 88.2% 0in /  0.0mm 141 W/m2
07:24 48.9 °F /  9.4 °C 45.5 °F /  7.5 °C 30.2in /  1021.0hPa Calm   2mph /  3.2km/h 87.7% 0in /  0.0mm 95 W/m2
07:29 49.5 °F /  9.7 °C 46.2 °F /  7.9 °C 30.2in /  1021.2hPa Calm   2mph /  3.2km/h 88.3% 0in /  0.0mm 202 W/m2
07:34 50.2 °F /  10.1 °C 46.8 °F /  8.2 °C 30.2in /  1021.2hPa Calm   2mph /  3.2km/h 87.8% 0in /  0.0mm 225 W/m2
07:39 50.9 °F /  10.5 °C 47.3 °F /  8.5 °C 30.2in /  1021.2hPa ESE 0.4mph /  0.6km/h 2mph /  3.2km/h 87.5% 0in /  0.0mm 276 W/m2
07:44 51.6 °F /  10.9 °C 47.8 °F /  8.8 °C 30.2in /  1021.3hPa ESE 1mph /  1.6km/h 2mph /  3.2km/h 86.8% 0in /  0.0mm 281 W/m2
07:49 52.5 °F /  11.4 °C 48.4 °F /  9.1 °C 30.2in /  1021.3hPa ESE 0.6mph /  1km/h 2mph /  3.2km/h 85.7% 0in /  0.0mm 292 W/m2
07:54 53.2 °F /  11.8 °C 48.9 °F /  9.4 °C 30.2in /  1021.4hPa Calm   2mph /  3.2km/h 85.5% 0in /  0.0mm 285 W/m2
07:59 53.8 °F /  12.1 °C 49.3 °F /  9.6 °C 30.2in /  1021.5hPa Calm   1mph /  1.6km/h 84.8% 0in /  0.0mm 315 W/m2
08:04 54.3 °F /  12.4 °C 49.8 °F /  9.9 °C 30.2in /  1021.5hPa Calm   2mph /  3.2km/h 84.7% 0in /  0.0mm 403 W/m2
08:09 55.4 °F /  13 °C 50.7 °F /  10.4 °C 30.2in /  1021.6hPa Calm   2mph /  3.2km/h 84.2% 0in /  0.0mm 432 W/m2
08:14 56.8 °F /  13.8 °C 51.4 °F /  10.8 °C 30.2in /  1021.6hPa Calm   3mph /  4.8km/h 82.2% 0in /  0.0mm 425 W/m2
08:19 57.9 °F /  14.4 °C 51.8 °F /  11 °C 30.2in /  1021.7hPa Calm   3mph /  4.8km/h 80.1% 0in /  0.0mm 320 W/m2
08:24 58.6 °F /  14.8 °C 52 °F /  11.1 °C 30.2in /  1021.6hPa SE 1mph /  1.6km/h 3mph /  4.8km/h 78.5% 0in /  0.0mm 424 W/m2
08:29 59.7 °F /  15.4 °C 52.5 °F /  11.4 °C 30.2in /  1021.6hPa East 1.2mph /  1.9km/h 4mph /  6.4km/h 76.8% 0in /  0.0mm 439 W/m2
08:34 60.8 °F /  16 °C 52.2 °F /  11.2 °C 30.2in /  1021.8hPa ENE 1.8mph /  2.9km/h 4mph /  6.4km/h 73.1% 0in /  0.0mm 547 W/m2
08:39 61.7 °F /  16.5 °C 51.8 °F /  11 °C 30.2in /  1021.8hPa ENE 2mph /  3.2km/h 4mph /  6.4km/h 70% 0in /  0.0mm 547 W/m2
08:44 61.5 °F /  16.4 °C 51.3 °F /  10.7 °C 30.2in /  1021.8hPa ENE 1.2mph /  1.9km/h 4mph /  6.4km/h 69.3% 0in /  0.0mm 513 W/m2
08:49 62.1 °F /  16.7 °C 52.2 °F /  11.2 °C 30.2in /  1021.9hPa NE 1mph /  1.6km/h 3mph /  4.8km/h 70.3% 0in /  0.0mm 297 W/m2
08:54 62.1 °F /  16.7 °C 51.8 °F /  11 °C 30.2in /  1021.9hPa NNE 1mph /  1.6km/h 4mph /  6.4km/h 69.2% 0in /  0.0mm 585 W/m2
08:59 62.8 °F /  17.1 °C 52.3 °F /  11.3 °C 30.2in /  1022.0hPa North 1.8mph /  2.9km/h 4mph /  6.4km/h 69% 0in /  0.0mm 631 W/m2
09:04 63.3 °F /  17.4 °C 52 °F /  11.1 °C 30.2in /  1021.9hPa North 2.4mph /  3.9km/h 9mph /  14.5km/h 66.5% 0in /  0.0mm 629 W/m2
09:09 64 °F /  17.8 °C 51.6 °F /  10.9 °C 30.2in /  1021.9hPa NNW 4.4mph /  7.1km/h 13mph /  20.9km/h 64.1% 0in /  0.0mm 629 W/m2
09:14 64.4 °F /  18 °C 50.9 °F /  10.5 °C 30.2in /  1021.9hPa NNW 6mph /  9.7km/h 13mph /  20.9km/h 61.7% 0in /  0.0mm 561 W/m2
09:19 64.6 °F /  18.1 °C 51.4 °F /  10.8 °C 30.2in /  1021.7hPa NW 6mph /  9.7km/h 13mph /  20.9km/h 62.2% 0in /  0.0mm 606 W/m2
09:24 65.5 °F /  18.6 °C 52 °F /  11.1 °C 30.2in /  1021.7hPa NNW 6mph /  9.7km/h 13mph /  20.9km/h 61.6% 0in /  0.0mm 800 W/m2
09:29 65.5 °F /  18.6 °C 51.8 °F /  11 °C 30.2in /  1021.7hPa North 5.6mph /  9km/h 13mph /  20.9km/h 61.3% 0in /  0.0mm 780 W/m2
09:34 65.5 °F /  18.6 °C 52 °F /  11.1 °C 30.2in /  1021.6hPa North 5.6mph /  9km/h 12mph /  19.3km/h 61.5% 0in /  0.0mm 687 W/m2
09:39 65.8 °F /  18.8 °C 51.6 °F /  10.9 °C 30.2in /  1021.7hPa NNW 5mph /  8km/h 12mph /  19.3km/h 60.3% 0in /  0.0mm 687 W/m2
09:44 65.8 °F /  18.8 °C 51.8 °F /  11 °C 30.2in /  1021.7hPa NNW 5mph /  8km/h 12mph /  19.3km/h 60.7% 0in /  0.0mm 677 W/m2
09:49 65.8 °F /  18.8 °C 51.4 °F /  10.8 °C 30.2in /  1021.7hPa North 5.8mph /  9.3km/h 13mph /  20.9km/h 59.6% 0in /  0.0mm 763 W/m2
09:54 65.8 °F /  18.8 °C 51.8 °F /  11 °C 30.2in /  1021.6hPa North 7mph /  11.3km/h 13mph /  20.9km/h 60.4% 0in /  0.0mm 944 W/m2
09:59 66.7 °F /  19.3 °C 52.3 °F /  11.3 °C 30.2in /  1021.6hPa North 6.4mph /  10.3km/h 13mph /  20.9km/h 59.8% 0in /  0.0mm 944 W/m2
10:04 66.9 °F /  19.4 °C 52 °F /  11.1 °C 30.2in /  1021.6hPa North 5.8mph /  9.3km/h 13mph /  20.9km/h 58.5% 0in /  0.0mm 944 W/m2
10:09 66 °F /  18.9 °C 51.6 °F /  10.9 °C 30.2in /  1021.5hPa NNW 6.4mph /  10.3km/h 14mph /  22.5km/h 59.8% 0in /  0.0mm 283 W/m2
10:14 65.8 °F /  18.8 °C 51.6 °F /  10.9 °C 30.2in /  1021.4hPa North 7mph /  11.3km/h 14mph /  22.5km/h 60.2% 0in /  0.0mm 768 W/m2
10:19 66.7 °F /  19.3 °C 52.3 °F /  11.3 °C 30.2in /  1021.3hPa North 6.6mph /  10.6km/h 14mph /  22.5km/h 60.1% 0in /  0.0mm 747 W/m2
10:24 67.5 °F /  19.7 °C 52.9 °F /  11.6 °C 30.2in /  1021.2hPa North 5mph /  8km/h 11mph /  17.7km/h 59.3% 0in /  0.0mm 779 W/m2
10:29 67.5 °F /  19.7 °C 52 °F /  11.1 °C 30.2in /  1021.3hPa NNW 5.4mph /  8.7km/h 15mph /  24.1km/h 57.5% 0in /  0.0mm 766 W/m2
10:34 67.1 °F /  19.5 °C 52 °F /  11.1 °C 30.2in /  1021.5hPa NNW 7.6mph /  12.2km/h 15mph /  24.1km/h 58.3% 0in /  0.0mm 824 W/m2
10:39 67.8 °F /  19.9 °C 52.9 °F /  11.6 °C 30.2in /  1021.4hPa NNW 7.8mph /  12.6km/h 15mph /  24.1km/h 59% 0in /  0.0mm 824 W/m2
10:44 68.4 °F /  20.2 °C 53.1 °F /  11.7 °C 30.2in /  1021.4hPa NNW 7mph /  11.3km/h 16mph /  25.7km/h 58.2% 0in /  0.0mm 823 W/m2
10:49 68.7 °F /  20.4 °C 53.4 °F /  11.9 °C 30.2in /  1021.3hPa NNW 7mph /  11.3km/h 16mph /  25.7km/h 58.4% 0in /  0.0mm 830 W/m2
10:54 69.8 °F /  21 °C 53.8 °F /  12.1 °C 30.2in /  1021.2hPa North 6.4mph /  10.3km/h 16mph /  25.7km/h 56.9% 0in /  0.0mm 830 W/m2
10:59 69.8 °F /  21 °C 53.4 °F /  11.9 °C 30.2in /  1021.1hPa NNW 5.8mph /  9.3km/h 19mph /  30.6km/h 56.3% 0in /  0.0mm 745 W/m2
11:04 69.3 °F /  20.7 °C 52.5 °F /  11.4 °C 30.2in /  1021.2hPa NW 7.6mph /  12.3km/h 19mph /  30.6km/h 55.4% 0in /  0.0mm 803 W/m2
11:09 69.1 °F /  20.6 °C 53.1 °F /  11.7 °C 30.2in /  1021.1hPa NW 9.8mph /  15.8km/h 19mph /  30.6km/h 56.7% 0in /  0.0mm 928 W/m2
11:14 70.3 °F /  21.3 °C 53.6 °F /  12 °C 30.2in /  1021.0hPa NW 8.8mph /  14.2km/h 19mph /  30.6km/h 55.3% 0in /  0.0mm 932 W/m2
11:19 70.3 °F /  21.3 °C 53.4 °F /  11.9 °C 30.2in /  1021.0hPa NW 8.8mph /  14.2km/h 18mph /  29km/h 55% 0in /  0.0mm 874 W/m2
11:24 70.5 °F /  21.4 °C 53.6 °F /  12 °C 30.2in /  1021.0hPa NW 9.6mph /  15.4km/h 18mph /  29km/h 54.9% 0in /  0.0mm 867 W/m2
11:29 70.9 °F /  21.6 °C 53.4 °F /  11.9 °C 30.2in /  1021.0hPa NW 9.2mph /  14.8km/h 20mph /  32.2km/h 54% 0in /  0.0mm 947 W/m2
11:34 71.1 °F /  21.7 °C 53.4 °F /  11.9 °C 30.2in /  1021.0hPa NNW 10.2mph /  16.4km/h 20mph /  32.2km/h 53.8% 0in /  0.0mm 947 W/m2
11:39 70.9 °F /  21.6 °C 53.2 °F /  11.8 °C 30.2in /  1020.9hPa NNW 9.8mph /  15.8km/h 20mph /  32.2km/h 53.8% 0in /  0.0mm 737 W/m2
11:44 71.1 °F /  21.7 °C 53.8 °F /  12.1 °C 30.2in /  1020.9hPa NNW 8.8mph /  14.2km/h 18mph /  29km/h 54.5% 0in /  0.0mm 912 W/m2
11:49 72.3 °F /  22.4 °C 54.5 °F /  12.5 °C 30.1in /  1020.7hPa NNW 7.6mph /  12.2km/h 18mph /  29km/h 53.3% 0in /  0.0mm 856 W/m2
11:54 72.1 °F /  22.3 °C 54 °F /  12.2 °C 30.1in /  1020.6hPa NNW 7.8mph /  12.6km/h 17mph /  27.4km/h 53% 0in /  0.0mm 900 W/m2
11:59 71.6 °F /  22 °C 53.8 °F /  12.1 °C 30.1in /  1020.6hPa NNW 9.4mph /  15.1km/h 19mph /  30.6km/h 53.2% 0in /  0.0mm 921 W/m2
12:04 71.2 °F /  21.8 °C 53.2 °F /  11.8 °C 30.1in /  1020.6hPa NNW 10mph /  16.1km/h 19mph /  30.6km/h 53% 0in /  0.0mm 780 W/m2
12:09 71.8 °F /  22.1 °C 53.8 °F /  12.1 °C 30.1in /  1020.5hPa NNW 8.8mph /  14.2km/h 19mph /  30.6km/h 53.3% 0in /  0.0mm 747 W/m2
12:14 71.4 °F /  21.9 °C 53.1 °F /  11.7 °C 30.1in /  1020.6hPa NNW 8.8mph /  14.2km/h 23mph /  37km/h 52.3% 0in /  0.0mm 668 W/m2
12:19 70.9 °F /  21.6 °C 53.1 °F /  11.7 °C 30.1in /  1020.5hPa NNW 9.8mph /  15.8km/h 23mph /  37km/h 53.3% 0in /  0.0mm 643 W/m2
12:24 70.7 °F /  21.5 °C 52.5 °F /  11.4 °C 30.1in /  1020.5hPa NNW 9.2mph /  14.8km/h 23mph /  37km/h 52.7% 0in /  0.0mm 631 W/m2
12:29 70.7 °F /  21.5 °C 53.2 °F /  11.8 °C 30.1in /  1020.5hPa NW 7.8mph /  12.6km/h 19mph /  30.6km/h 54% 0in /  0.0mm 821 W/m2
12:34 71.2 °F /  21.8 °C 53.1 °F /  11.7 °C 30.1in /  1020.2hPa NNW 8.4mph /  13.5km/h 19mph /  30.6km/h 52.8% 0in /  0.0mm 838 W/m2
12:39 72 °F /  22.2 °C 53.4 °F /  11.9 °C 30.1in /  1020.2hPa NNW 9mph /  14.5km/h 19mph /  30.6km/h 52% 0in /  0.0mm 766 W/m2
12:44 71.8 °F /  22.1 °C 53.1 °F /  11.7 °C 30.1in /  1020.2hPa NNW 8mph /  12.9km/h 18mph /  29km/h 51.8% 0in /  0.0mm 710 W/m2
12:49 71.8 °F /  22.1 °C 53.6 °F /  12 °C 30.1in /  1020.1hPa NNW 7mph /  11.3km/h 18mph /  29km/h 52.8% 0in /  0.0mm 749 W/m2
12:54 71.8 °F /  22.1 °C 54 °F /  12.2 °C 30.1in /  1020.1hPa North 7.4mph /  11.9km/h 15mph /  24.1km/h 53.3% 0in /  0.0mm 749 W/m2
12:59 71.4 °F /  21.9 °C 53.2 °F /  11.8 °C 30.1in /  1020.0hPa NNW 8.6mph /  13.8km/h 17mph /  27.4km/h 52.7% 0in /  0.0mm 566 W/m2
13:04 71.1 °F /  21.7 °C 53.2 °F /  11.8 °C 30.1in /  1020.0hPa NNW 8.4mph /  13.5km/h 17mph /  27.4km/h 53.5% 0in /  0.0mm 483 W/m2
13:09 71.1 °F /  21.7 °C 53.6 °F /  12 °C 30.1in /  1019.9hPa NNW 7.6mph /  12.2km/h 17mph /  27.4km/h 53.8% 0in /  0.0mm 504 W/m2
13:14 71.1 °F /  21.7 °C 53.2 °F /  11.8 °C 30.1in /  1020.0hPa North 7.6mph /  12.2km/h 17mph /  27.4km/h 53.1% 0in /  0.0mm 459 W/m2
13:15 70.9 °F /  21.6 °C 53.2 °F /  11.8 °C 30.1in /  1019.9hPa NNW 9mph /  14.5km/h 17mph /  27.4km/h 53.7% 0in /  0.0mm 366 W/m2
14:04 73 °F /  22.8 °C 54.1 °F /  12.3 °C 30.1in /  1019.6hPa NW 9mph /  14.5km/h 17mph /  27.4km/h 51.8% 0in /  0.0mm 633 W/m2
14:09 73.2 °F /  22.9 °C 53.8 °F /  12.1 °C 30.1in /  1019.7hPa NW 8.8mph /  14.2km/h 18mph /  29km/h 50.5% 0in /  0.0mm 696 W/m2
14:14 73 °F /  22.8 °C 53.6 °F /  12 °C 30.1in /  1019.7hPa NW 9mph /  14.5km/h 18mph /  29km/h 50.5% 0in /  0.0mm 707 W/m2
14:19 73.4 °F /  23 °C 54.1 °F /  12.3 °C 30.1in /  1019.7hPa NW 8.8mph /  14.2km/h 18mph /  29km/h 50.7% 0in /  0.0mm 684 W/m2
14:24 73.8 °F /  23.2 °C 53.8 °F /  12.1 °C 30.1in /  1019.6hPa NW 7.4mph /  11.9km/h 15mph /  24.1km/h 49.7% 0in /  0.0mm 666 W/m2
14:29 73.4 °F /  23 °C 54 °F /  12.2 °C 30.1in /  1019.6hPa NW 7.8mph /  12.6km/h 20mph /  32.2km/h 50.6% 0in /  0.0mm 656 W/m2
14:34 73.6 °F /  23.1 °C 54 °F /  12.2 °C 30.1in /  1019.5hPa NW 9mph /  14.5km/h 20mph /  32.2km/h 50.3% 0in /  0.0mm 652 W/m2
14:39 73.8 °F /  23.2 °C 54 °F /  12.2 °C 30.1in /  1019.5hPa NNW 9.2mph /  14.8km/h 20mph /  32.2km/h 50% 0in /  0.0mm 610 W/m2
14:44 73.2 °F /  22.9 °C 54 °F /  12.2 °C 30.1in /  1019.5hPa NNW 9mph /  14.5km/h 18mph /  29km/h 50.8% 0in /  0.0mm 499 W/m2
14:49 73.4 °F /  23 °C 54.7 °F /  12.6 °C 30.1in /  1019.5hPa NW 8.2mph /  13.2km/h 18mph /  29km/h 51.9% 0in /  0.0mm 497 W/m2
14:54 73.6 °F /  23.1 °C 54.7 °F /  12.6 °C 30.1in /  1019.6hPa NW 7.2mph /  11.6km/h 18mph /  29km/h 51.5% 0in /  0.0mm 394 W/m2
14:59 73.6 °F /  23.1 °C 54.5 °F /  12.5 °C 30.1in /  1019.6hPa NNW 7mph /  11.3km/h 17mph /  27.4km/h 51.5% 0in /  0.0mm 552 W/m2
15:04 73.6 °F /  23.1 °C 54.5 °F /  12.5 °C 30.1in /  1019.6hPa NNW 7mph /  11.3km/h 14mph /  22.5km/h 51.4% 0in /  0.0mm 552 W/m2
15:09 73.6 °F /  23.1 °C 54.9 °F /  12.7 °C 30.1in /  1019.6hPa NNW 6.8mph /  10.9km/h 14mph /  22.5km/h 52.2% 0in /  0.0mm 403 W/m2
15:14 73.2 °F /  22.9 °C 54.5 °F /  12.5 °C 30.1in /  1019.6hPa NNW 6.6mph /  10.6km/h 14mph /  22.5km/h 52% 0in /  0.0mm 466 W/m2
15:19 72.5 °F /  22.5 °C 54.7 °F /  12.6 °C 30.1in /  1019.6hPa NW 7.4mph /  11.9km/h 15mph /  24.1km/h 53.5% 0in /  0.0mm 420 W/m2
15:24 73 °F /  22.8 °C 55.6 °F /  13.1 °C 30.1in /  1019.6hPa NW 7mph /  11.3km/h 15mph /  24.1km/h 54.5% 0in /  0.0mm 327 W/m2
15:29 72.5 °F /  22.5 °C 54.5 °F /  12.5 °C 30.1in /  1019.7hPa NNW 6mph /  9.7km/h 14mph /  22.5km/h 53% 0in /  0.0mm 304 W/m2
15:34 72.3 °F /  22.4 °C 54.1 °F /  12.3 °C 30.1in /  1019.6hPa NW 7mph /  11.3km/h 14mph /  22.5km/h 52.6% 0in /  0.0mm 301 W/m2
15:39 72.5 °F /  22.5 °C 54.5 °F /  12.5 °C 30.1in /  1019.7hPa NW 6.6mph /  10.6km/h 14mph /  22.5km/h 53.3% 0in /  0.0mm 292 W/m2
15:44 72.5 °F /  22.5 °C 54.3 °F /  12.4 °C 30.1in /  1019.7hPa NNW 6mph /  9.7km/h 13mph /  20.9km/h 52.8% 0in /  0.0mm 311 W/m2
15:49 72.5 °F /  22.5 °C 54.1 °F /  12.3 °C 30.1in /  1019.8hPa NNW 7mph /  11.3km/h 13mph /  20.9km/h 52.5% 0in /  0.0mm 330 W/m2
15:54 73 °F /  22.8 °C 54.9 °F /  12.7 °C 30.1in /  1019.7hPa NNW 6mph /  9.7km/h 13mph /  20.9km/h 52.8% 0in /  0.0mm 322 W/m2
15:59 73 °F /  22.8 °C 54.7 °F /  12.6 °C 30.1in /  1019.9hPa North 5mph /  8km/h 13mph /  20.9km/h 52.8% 0in /  0.0mm 294 W/m2
16:04 72.1 °F /  22.3 °C 54.7 °F /  12.6 °C 30.1in /  1019.8hPa NNW 5.4mph /  8.7km/h 12mph /  19.3km/h 54.1% 0in /  0.0mm 255 W/m2
16:09 72 °F /  22.2 °C 54.9 °F /  12.7 °C 30.1in /  1019.9hPa NW 5mph /  8km/h 10mph /  16.1km/h 54.8% 0in /  0.0mm 207 W/m2
16:14 72 °F /  22.2 °C 54.7 °F /  12.6 °C 30.1in /  1020.0hPa NNW 4.2mph /  6.8km/h 9mph /  14.5km/h 54.7% 0in /  0.0mm 260 W/m2
16:19 72 °F /  22.2 °C 55 °F /  12.8 °C 30.1in /  1020.0hPa NNW 4mph /  6.4km/h 9mph /  14.5km/h 55.3% 0in /  0.0mm 251 W/m2
16:24 71.8 °F /  22.1 °C 54.5 °F /  12.5 °C 30.1in /  1020.0hPa NW 4mph /  6.4km/h 8mph /  12.9km/h 54.3% 0in /  0.0mm 176 W/m2
16:29 71.6 °F /  22 °C 54.9 °F /  12.7 °C 30.1in /  1020.0hPa NNW 4mph /  6.4km/h 8mph /  12.9km/h 55.5% 0in /  0.0mm 158 W/m2
16:34 71.8 °F /  22.1 °C 55 °F /  12.8 °C 30.1in /  1020.0hPa North 3.2mph /  5.1km/h 8mph /  12.9km/h 55.7% 0in /  0.0mm 137 W/m2
16:39 71.4 °F /  21.9 °C 55 °F /  12.8 °C 30.1in /  1020.1hPa North 3mph /  4.8km/h 8mph /  12.9km/h 56.4% 0in /  0.0mm 123 W/m2
16:44 71.1 °F /  21.7 °C 55.2 °F /  12.9 °C 30.1in /  1020.2hPa North 3mph /  4.8km/h 5mph /  8km/h 57% 0in /  0.0mm 118 W/m2
16:49 71.2 °F /  21.8 °C 55.2 °F /  12.9 °C 30.1in /  1020.2hPa North 2.4mph /  3.9km/h 5mph /  8km/h 57.2% 0in /  0.0mm 113 W/m2
16:54 71.1 °F /  21.7 °C 55.6 °F /  13.1 °C 30.1in /  1020.3hPa North 2mph /  3.2km/h 5mph /  8km/h 58.1% 0in /  0.0mm 107 W/m2
16:59 71.1 °F /  21.7 °C 55.6 °F /  13.1 °C 30.1in /  1020.4hPa North 2mph /  3.2km/h 5mph /  8km/h 58% 0in /  0.0mm 97 W/m2
17:04 71.1 °F /  21.7 °C 55.8 °F /  13.2 °C 30.1in /  1020.5hPa NNE 2mph /  3.2km/h 5mph /  8km/h 58.1% 0in /  0.0mm 90 W/m2
17:09 71.1 °F /  21.7 °C 55.8 °F /  13.2 °C 30.1in /  1020.6hPa NNE 2.6mph /  4.2km/h 5mph /  8km/h 58.7% 0in /  0.0mm 81 W/m2
17:14 70.7 °F /  21.5 °C 55.8 °F /  13.2 °C 30.1in /  1020.7hPa NNE 2.6mph /  4.2km/h 5mph /  8km/h 59.3% 0in /  0.0mm 69 W/m2
17:19 70.3 °F /  21.3 °C 55.8 °F /  13.2 °C 30.1in /  1020.8hPa NE 2mph /  3.2km/h 5mph /  8km/h 60% 0in /  0.0mm 56 W/m2
17:24 70.2 °F /  21.2 °C 55.9 °F /  13.3 °C 30.2in /  1020.9hPa NE 2mph /  3.2km/h 5mph /  8km/h 60.5% 0in /  0.0mm 49 W/m2
17:29 70 °F /  21.1 °C 56.1 °F /  13.4 °C 30.2in /  1021.0hPa NE 1.6mph /  2.6km/h 5mph /  8km/h 61.5% 0in /  0.0mm 44 W/m2
17:34 69.6 °F /  20.9 °C 56.1 °F /  13.4 °C 30.2in /  1021.0hPa NE 1mph /  1.6km/h 3mph /  4.8km/h 62% 0in /  0.0mm 37 W/m2
17:39 69.6 °F /  20.9 °C 56.5 °F /  13.6 °C 30.2in /  1021.1hPa NE 1.8mph /  2.9km/h 4mph /  6.4km/h 63% 0in /  0.0mm 32 W/m2
17:44 69.6 °F /  20.9 °C 56.3 °F /  13.5 °C 30.2in /  1021.3hPa NE 2mph /  3.2km/h 4mph /  6.4km/h 62.8% 0in /  0.0mm 23 W/m2
17:49 69.3 °F /  20.7 °C 56.3 °F /  13.5 °C 30.2in /  1021.4hPa NE 2mph /  3.2km/h 4mph /  6.4km/h 63.1% 0in /  0.0mm 16 W/m2
17:54 68.9 °F /  20.5 °C 56.3 °F /  13.5 °C 30.2in /  1021.6hPa NE 2mph /  3.2km/h 4mph /  6.4km/h 64% 0in /  0.0mm 9 W/m2
17:59 68 °F /  20 °C 54.1 °F /  12.3 °C 30.2in /  1022.1hPa ENE 3.2mph /  5.1km/h 23mph /  37km/h 61.1% 0in /  0.0mm 5 W/m2
18:04 64.6 °F /  18.1 °C 50.4 °F /  10.2 °C 30.2in /  1022.5hPa East 7.3mph /  11.8km/h 23mph /  37km/h 60% 0in /  0.0mm 0 W/m2
18:09 62.1 °F /  16.7 °C 49.6 °F /  9.8 °C 30.2in /  1022.9hPa East 8.6mph /  13.9km/h 23mph /  37km/h 63.8% 0in /  0.0mm 0 W/m2
18:14 60.6 °F /  15.9 °C 49.3 °F /  9.6 °C 30.2in /  1023.2hPa East 8mph /  12.9km/h 17mph /  27.4km/h 66.1% 0in /  0.0mm 0 W/m2
18:19 59.5 °F /  15.3 °C 48.7 °F /  9.3 °C 30.2in /  1023.3hPa East 8.2mph /  13.2km/h 17mph /  27.4km/h 67.7% 0in /  0.0mm 0 W/m2
18:24 58.5 °F /  14.7 °C 48.7 °F /  9.3 °C 30.2in /  1023.6hPa East 7.2mph /  11.6km/h 17mph /  27.4km/h 69.8% 0in /  0.0mm 0 W/m2
18:29 58.3 °F /  14.6 °C 48.7 °F /  9.3 °C 30.2in /  1023.6hPa East 7.2mph /  11.6km/h 16mph /  25.7km/h 70.9% 0in /  0.0mm 0 W/m2
18:34 58.1 °F /  14.5 °C 48.7 °F /  9.3 °C 30.2in /  1023.8hPa East 7.2mph /  11.6km/h 16mph /  25.7km/h 71% 0in /  0.0mm 0 W/m2
18:39 57.9 °F /  14.4 °C 48.7 °F /  9.3 °C 30.2in /  1024.0hPa East 7mph /  11.3km/h 16mph /  25.7km/h 71.5% 0in /  0.0mm 0 W/m2
18:44 57.6 °F /  14.2 °C 48.6 °F /  9.2 °C 30.2in /  1024.2hPa East 6.8mph /  10.9km/h 15mph /  24.1km/h 72% 0in /  0.0mm 0 W/m2
18:49 57.4 °F /  14.1 °C 48.4 °F /  9.1 °C 30.3in /  1024.4hPa East 7mph /  11.3km/h 17mph /  27.4km/h 72% 0in /  0.0mm 0 W/m2
18:54 57 °F /  13.9 °C 48.2 °F /  9 °C 30.3in /  1024.6hPa East 7mph /  11.3km/h 18mph /  29km/h 72.6% 0in /  0.0mm 0 W/m2
18:59 56.7 °F /  13.7 °C 48 °F /  8.9 °C 30.3in /  1024.8hPa East 7mph /  11.3km/h 18mph /  29km/h 73% 0in /  0.0mm 0 W/m2
19:04 56.5 °F /  13.6 °C 48 °F /  8.9 °C 30.3in /  1025.0hPa East 6mph /  9.7km/h 18mph /  29km/h 73.6% 0in /  0.0mm 0 W/m2
19:09 56.3 °F /  13.5 °C 48 °F /  8.9 °C 30.3in /  1025.2hPa ESE 5.6mph /  9km/h 15mph /  24.1km/h 74% 0in /  0.0mm 0 W/m2
19:14 55.9 °F /  13.3 °C 47.8 °F /  8.8 °C 30.3in /  1025.3hPa ESE 7mph /  11.2km/h 15mph /  24.1km/h 74.2% 0in /  0.0mm 0 W/m2
19:19 55.8 °F /  13.2 °C 47.8 °F /  8.8 °C 30.3in /  1025.5hPa East 7.8mph /  12.6km/h 15mph /  24.1km/h 75% 0in /  0.0mm 0 W/m2
19:24 55.6 °F /  13.1 °C 47.8 °F /  8.8 °C 30.3in /  1025.7hPa East 6.2mph /  10km/h 16mph /  25.7km/h 75.3% 0in /  0.0mm 0 W/m2
19:29 55.4 °F /  13 °C 48 °F /  8.9 °C 30.3in /  1025.8hPa East 5.2mph /  8.4km/h 16mph /  25.7km/h 76% 0in /  0.0mm 0 W/m2
19:34 55.2 °F /  12.9 °C 47.8 °F /  8.8 °C 30.3in /  1026.1hPa ESE 5.8mph /  9.3km/h 16mph /  25.7km/h 76% 0in /  0.0mm 0 W/m2
19:39 55.2 °F /  12.9 °C 48 °F /  8.9 °C 30.3in /  1026.3hPa East 5.8mph /  9.4km/h 14mph /  22.5km/h 76.7% 0in /  0.0mm 0 W/m2
19:44 55.2 °F /  12.9 °C 48 °F /  8.9 °C 30.3in /  1026.5hPa East 4.6mph /  7.4km/h 12mph /  19.3km/h 77% 0in /  0.0mm 0 W/m2
19:49 55.4 °F /  13 °C 48.2 °F /  9 °C 30.3in /  1026.5hPa ESE 4mph /  6.4km/h 11mph /  17.7km/h 77% 0in /  0.0mm 0 W/m2
19:54 55.4 °F /  13 °C 48.2 °F /  9 °C 30.3in /  1026.6hPa ESE 3.8mph /  6.1km/h 9mph /  14.5km/h 77% 0in /  0.0mm 0 W/m2
19:59 55.4 °F /  13 °C 48.2 °F /  9 °C 30.3in /  1026.8hPa ESE 3mph /  4.8km/h 8mph /  12.9km/h 77% 0in /  0.0mm 0 W/m2
20:04 55.2 °F /  12.9 °C 48.2 °F /  9 °C 30.3in /  1027.0hPa ESE 3.2mph /  5.1km/h 10mph /  16.1km/h 77.2% 0in /  0.0mm 0 W/m2
20:09 55.2 °F /  12.9 °C 48.4 °F /  9.1 °C 30.3in /  1027.0hPa East 4mph /  6.4km/h 10mph /  16.1km/h 77.8% 0in /  0.0mm 0 W/m2
20:14 55.2 °F /  12.9 °C 48.4 °F /  9.1 °C 30.3in /  1027.2hPa East 4.4mph /  7.1km/h 10mph /  16.1km/h 78% 0in /  0.0mm 0 W/m2
20:19 55.2 °F /  12.9 °C 48.6 °F /  9.2 °C 30.3in /  1027.2hPa ESE 2.9mph /  4.6km/h 9mph /  14.5km/h 78% 0in /  0.0mm 0 W/m2
20:24 55.2 °F /  12.9 °C 48.4 °F /  9.1 °C 30.3in /  1027.2hPa ESE 2mph /  3.2km/h 11mph /  17.7km/h 78% 0in /  0.0mm 0 W/m2
20:29 55 °F /  12.8 °C 48.4 °F /  9.1 °C 30.3in /  1027.2hPa East 3.4mph /  5.4km/h 11mph /  17.7km/h 78% 0in /  0.0mm 0 W/m2
20:34 55 °F /  12.8 °C 48.4 °F /  9.1 °C 30.3in /  1027.2hPa East 4.4mph /  7.1km/h 11mph /  17.7km/h 78% 0in /  0.0mm 0 W/m2
20:39 55 °F /  12.8 °C 48.4 °F /  9.1 °C 30.3in /  1027.2hPa East 4.2mph /  6.8km/h 11mph /  17.7km/h 78% 0in /  0.0mm 0 W/m2
20:44 55 °F /  12.8 °C 48.4 °F /  9.1 °C 30.3in /  1027.3hPa East 4mph /  6.4km/h 11mph /  17.7km/h 78% 0in /  0.0mm 0 W/m2
20:49 55 °F /  12.8 °C 48.4 °F /  9.1 °C 30.3in /  1027.5hPa East 4mph /  6.4km/h 10mph /  16.1km/h 78% 0in /  0.0mm 0 W/m2
20:54 54.9 °F /  12.7 °C 48.2 °F /  9 °C 30.3in /  1027.5hPa East 3.6mph /  5.8km/h 10mph /  16.1km/h 78% 0in /  0.0mm 0 W/m2
20:59 54.9 °F /  12.7 °C 48.2 °F /  9 °C 30.3in /  1027.5hPa East 3mph /  4.8km/h 10mph /  16.1km/h 78% 0in /  0.0mm 0 W/m2
21:04 54.9 °F /  12.7 °C 48.2 °F /  9 °C 30.3in /  1027.6hPa East 3mph /  4.8km/h 10mph /  16.1km/h 78% 0in /  0.0mm 0 W/m2
21:09 54.9 °F /  12.7 °C 48.2 °F /  9 °C 30.3in /  1027.6hPa East 2.2mph /  3.6km/h 10mph /  16.1km/h 78% 0in /  0.0mm 0 W/m2
21:14 54.9 °F /  12.7 °C 48.2 °F /  9 °C 30.3in /  1027.6hPa East 3.2mph /  5.1km/h 9mph /  14.5km/h 78.2% 0in /  0.0mm 0 W/m2
21:19 54.9 °F /  12.7 °C 48.4 °F /  9.1 °C 30.3in /  1027.5hPa East 4.4mph /  7.1km/h 11mph /  17.7km/h 78.9% 0in /  0.0mm 0 W/m2
21:24 54.7 °F /  12.6 °C 48.4 °F /  9.1 °C 30.4in /  1027.7hPa East 4mph /  6.5km/h 11mph /  17.7km/h 79% 0in /  0.0mm 0 W/m2
21:29 54.7 °F /  12.6 °C 48.2 °F /  9 °C 30.4in /  1027.8hPa East 3mph /  4.9km/h 11mph /  17.7km/h 79% 0in /  0.0mm 0 W/m2
21:34 54.7 °F /  12.6 °C 48.2 °F /  9 °C 30.4in /  1027.8hPa East 2mph /  3.2km/h 7mph /  11.3km/h 79% 0in /  0.0mm 0 W/m2
21:39 54.7 °F /  12.6 °C 48.2 °F /  9 °C 30.4in /  1027.8hPa East 2.2mph /  3.5km/h 9mph /  14.5km/h 78.9% 0in /  0.0mm 0 W/m2
21:44 54.5 °F /  12.5 °C 47.8 °F /  8.8 °C 30.4in /  1027.8hPa ESE 3mph /  4.8km/h 10mph /  16.1km/h 78% 0in /  0.0mm 0 W/m2
21:49 54.5 °F /  12.5 °C 47.8 °F /  8.8 °C 30.4in /  1027.8hPa ESE 3.2mph /  5.1km/h 10mph /  16.1km/h 78% 0in /  0.0mm 0 W/m2
21:54 54.5 °F /  12.5 °C 47.7 °F /  8.7 °C 30.4in /  1027.9hPa East 3mph /  4.8km/h 10mph /  16.1km/h 78% 0in /  0.0mm 0 W/m2
21:59 54.3 °F /  12.4 °C 47.7 °F /  8.7 °C 30.4in /  1027.9hPa East 3mph /  4.8km/h 10mph /  16.1km/h 78% 0in /  0.0mm 0 W/m2
22:04 54.1 °F /  12.3 °C 47.5 °F /  8.6 °C 30.4in /  1027.9hPa East 3.2mph /  5.1km/h 10mph /  16.1km/h 78% 0in /  0.0mm 0 W/m2
22:09 54 °F /  12.2 °C 47.5 °F /  8.6 °C 30.4in /  1028.1hPa East 4.5mph /  7.3km/h 12mph /  19.3km/h 78.3% 0in /  0.0mm 0 W/m2
22:14 54 °F /  12.2 °C 47.5 °F /  8.6 °C 30.4in /  1028.2hPa East 4.4mph /  7.1km/h 12mph /  19.3km/h 79% 0in /  0.0mm 0 W/m2
22:19 53.8 °F /  12.1 °C 47.5 °F /  8.6 °C 30.4in /  1028.2hPa East 5mph /  8km/h 12mph /  19.3km/h 79% 0in /  0.0mm 0 W/m2
22:24 53.8 °F /  12.1 °C 47.3 °F /  8.5 °C 30.4in /  1028.3hPa East 5mph /  8km/h 12mph /  19.3km/h 79% 0in /  0.0mm 0 W/m2
22:29 53.6 °F /  12 °C 47.1 °F /  8.4 °C 30.4in /  1028.3hPa East 5mph /  8km/h 12mph /  19.3km/h 79% 0in /  0.0mm 0 W/m2
22:34 53.4 °F /  11.9 °C 46.9 °F /  8.3 °C 30.4in /  1028.3hPa East 4.4mph /  7.1km/h 10mph /  16.1km/h 79% 0in /  0.0mm 0 W/m2
22:39 53.2 °F /  11.8 °C 46.9 °F /  8.3 °C 30.4in /  1028.3hPa East 4.8mph /  7.7km/h 10mph /  16.1km/h 79% 0in /  0.0mm 0 W/m2
22:44 53.2 °F /  11.8 °C 47.1 °F /  8.4 °C 30.4in /  1028.4hPa East 4.6mph /  7.4km/h 10mph /  16.1km/h 79.7% 0in /  0.0mm 0 W/m2
22:49 53.2 °F /  11.8 °C 47.1 °F /  8.4 °C 30.4in /  1028.4hPa East 3.8mph /  6.1km/h 9mph /  14.5km/h 80% 0in /  0.0mm 0 W/m2
22:54 53.1 °F /  11.7 °C 46.9 °F /  8.3 °C 30.4in /  1028.4hPa East 3mph /  4.8km/h 9mph /  14.5km/h 79.6% 0in /  0.0mm 0 W/m2
22:59 53.1 °F /  11.7 °C 46.8 °F /  8.2 °C 30.4in /  1028.3hPa East 4mph /  6.4km/h 9mph /  14.5km/h 79% 0in /  0.0mm 0 W/m2
23:04 53.1 °F /  11.7 °C 46.8 °F /  8.2 °C 30.4in /  1028.3hPa East 4mph /  6.4km/h 8mph /  12.9km/h 79% 0in /  0.0mm 0 W/m2
23:09 52.9 °F /  11.6 °C 46.6 °F /  8.1 °C 30.4in /  1028.3hPa East 3.6mph /  5.8km/h 10mph /  16.1km/h 79% 0in /  0.0mm 0 W/m2
23:14 52.9 °F /  11.6 °C 46.6 °F /  8.1 °C 30.4in /  1028.4hPa East 4mph /  6.4km/h 10mph /  16.1km/h 79% 0in /  0.0mm 0 W/m2
23:19 52.9 °F /  11.6 °C 46.6 °F /  8.1 °C 30.4in /  1028.4hPa East 3.4mph /  5.5km/h 10mph /  16.1km/h 79% 0in /  0.0mm 0 W/m2
23:24 52.9 °F /  11.6 °C 46.6 °F /  8.1 °C 30.4in /  1028.5hPa East 3mph /  4.8km/h 9mph /  14.5km/h 79% 0in /  0.0mm 0 W/m2
23:29 52.9 °F /  11.6 °C 46.6 °F /  8.1 °C 30.4in /  1028.4hPa East 3mph /  4.8km/h 8mph /  12.9km/h 79% 0in /  0.0mm 0 W/m2
23:34 52.9 °F /  11.6 °C 46.6 °F /  8.1 °C 30.4in /  1028.4hPa East 3mph /  4.8km/h 8mph /  12.9km/h 79% 0in /  0.0mm 0 W/m2
23:39 52.9 °F /  11.6 °C 46.6 °F /  8.1 °C 30.4in /  1028.3hPa East 3mph /  4.8km/h 9mph /  14.5km/h 79% 0in /  0.0mm 0 W/m2
23:44 52.7 °F /  11.5 °C 46.4 °F /  8 °C 30.4in /  1028.3hPa East 3mph /  4.8km/h 9mph /  14.5km/h 78.8% 0in /  0.0mm 0 W/m2
23:49 52.7 °F /  11.5 °C 46.4 °F /  8 °C 30.4in /  1028.4hPa ESE 3mph /  4.8km/h 9mph /  14.5km/h 79% 0in /  0.0mm 0 W/m2
23:54 52.7 °F /  11.5 °C 46.4 °F /  8 °C 30.4in /  1028.5hPa ESE 3mph /  4.8km/h 8mph /  12.9km/h 79% 0in /  0.0mm 0 W/m2
23:59 52.7 °F /  11.5 °C 46.4 °F /  8 °C 30.4in /  1028.5hPa ESE 2.2mph /  3.6km/h 8mph /  12.9km/h 79% 0in /  0.0mm 0 W/m2
Compliments of Weather Underground - 1.25 mb

Latitude S 35° 13' 00" Longitude E 149° 01' 22" Elevation 577 m
Page updated 23/09/2020 12:10:01 AM.
Powered by Cumulus MX v3.2.0 (3056)